sensor_id;sensor_type;location;lat;lon;timestamp;temperature;humidity
21481;DHT22;10902;48.158;8.634;2023-09-19T00:00:17;13.50;99.90
21481;DHT22;10902;48.158;8.634;2023-09-19T00:03:06;13.50;99.90
21481;DHT22;10902;48.158;8.634;2023-09-19T00:05:51;13.50;99.90
21481;DHT22;10902;48.158;8.634;2023-09-19T00:08:37;13.50;99.90
21481;DHT22;10902;48.158;8.634;2023-09-19T00:11:22;13.40;99.90
21481;DHT22;10902;48.158;8.634;2023-09-19T00:14:12;13.40;99.90
21481;DHT22;10902;48.158;8.634;2023-09-19T00:17:00;13.30;99.90
21481;DHT22;10902;48.158;8.634;2023-09-19T00:19:46;13.30;99.90
21481;DHT22;10902;48.158;8.634;2023-09-19T00:22:31;13.30;99.90
21481;DHT22;10902;48.158;8.634;2023-09-19T00:25:17;13.40;99.90
21481;DHT22;10902;48.158;8.634;2023-09-19T00:28:06;13.40;99.90
21481;DHT22;10902;48.158;8.634;2023-09-19T00:30:52;13.50;99.90
21481;DHT22;10902;48.158;8.634;2023-09-19T00:33:40;13.50;99.90
21481;DHT22;10902;48.158;8.634;2023-09-19T00:36:26;13.40;99.90
21481;DHT22;10902;48.158;8.634;2023-09-19T00:39:11;13.50;99.90
21481;DHT22;10902;48.158;8.634;2023-09-19T00:41:57;13.50;99.90
21481;DHT22;10902;48.158;8.634;2023-09-19T00:44:43;13.60;99.90
21481;DHT22;10902;48.158;8.634;2023-09-19T00:47:29;13.60;99.90
21481;DHT22;10902;48.158;8.634;2023-09-19T00:50:20;13.70;99.90
21481;DHT22;10902;48.158;8.634;2023-09-19T00:53:07;13.70;99.90
21481;DHT22;10902;48.158;8.634;2023-09-19T00:55:55;13.70;99.90
21481;DHT22;10902;48.158;8.634;2023-09-19T00:58:41;13.70;99.90
21481;DHT22;10902;48.158;8.634;2023-09-19T01:01:27;13.80;99.90
21481;DHT22;10902;48.158;8.634;2023-09-19T01:04:14;13.80;99.90
21481;DHT22;10902;48.158;8.634;2023-09-19T01:07:00;13.80;99.90
21481;DHT22;10902;48.158;8.634;2023-09-19T01:09:45;13.80;99.90
21481;DHT22;10902;48.158;8.634;2023-09-19T01:13:05;13.90;99.90
21481;DHT22;10902;48.158;8.634;2023-09-19T01:16:12;13.90;99.90
21481;DHT22;10902;48.158;8.634;2023-09-19T01:22:26;13.90;99.90
21481;DHT22;10902;48.158;8.634;2023-09-19T01:25:33;14.00;99.90
21481;DHT22;10902;48.158;8.634;2023-09-19T01:31:42;13.90;99.90
21481;DHT22;10902;48.158;8.634;2023-09-19T01:34:55;13.90;99.90
21481;DHT22;10902;48.158;8.634;2023-09-19T01:37:49;13.80;99.90
21481;DHT22;10902;48.158;8.634;2023-09-19T01:40:43;13.80;99.90
21481;DHT22;10902;48.158;8.634;2023-09-19T01:43:41;13.90;99.90
21481;DHT22;10902;48.158;8.634;2023-09-19T01:46:33;14.00;99.90
21481;DHT22;10902;48.158;8.634;2023-09-19T01:53:19;14.00;99.90
21481;DHT22;10902;48.158;8.634;2023-09-19T01:56:08;14.00;99.90
21481;DHT22;10902;48.158;8.634;2023-09-19T01:59:02;13.90;99.90
21481;DHT22;10902;48.158;8.634;2023-09-19T02:01:52;13.90;99.90
21481;DHT22;10902;48.158;8.634;2023-09-19T02:04:38;13.90;99.90
21481;DHT22;10902;48.158;8.634;2023-09-19T02:07:24;13.90;99.90
21481;DHT22;10902;48.158;8.634;2023-09-19T02:10:09;13.90;99.90
21481;DHT22;10902;48.158;8.634;2023-09-19T02:12:57;14.00;99.90
21481;DHT22;10902;48.158;8.634;2023-09-19T02:15:44;14.10;99.90
21481;DHT22;10902;48.158;8.634;2023-09-19T02:18:34;14.10;99.90
21481;DHT22;10902;48.158;8.634;2023-09-19T02:21:20;14.10;99.90
21481;DHT22;10902;48.158;8.634;2023-09-19T02:24:08;14.10;99.90
21481;DHT22;10902;48.158;8.634;2023-09-19T02:26:56;14.10;99.90
21481;DHT22;10902;48.158;8.634;2023-09-19T02:29:42;14.10;99.90
21481;DHT22;10902;48.158;8.634;2023-09-19T02:32:33;14.10;99.90
21481;DHT22;10902;48.158;8.634;2023-09-19T02:35:23;14.00;99.90
21481;DHT22;10902;48.158;8.634;2023-09-19T02:38:11;13.90;99.90
21481;DHT22;10902;48.158;8.634;2023-09-19T02:40:57;13.90;99.90
21481;DHT22;10902;48.158;8.634;2023-09-19T02:43:43;13.90;99.90
21481;DHT22;10902;48.158;8.634;2023-09-19T02:46:29;13.80;99.90
21481;DHT22;10902;48.158;8.634;2023-09-19T02:49:14;13.80;99.90
21481;DHT22;10902;48.158;8.634;2023-09-19T02:52:00;13.80;99.90
21481;DHT22;10902;48.158;8.634;2023-09-19T02:54:46;13.90;99.90
21481;DHT22;10902;48.158;8.634;2023-09-19T02:57:32;13.80;99.90
21481;DHT22;10902;48.158;8.634;2023-09-19T03:00:19;13.80;99.90
21481;DHT22;10902;48.158;8.634;2023-09-19T03:03:08;13.80;99.90
21481;DHT22;10902;48.158;8.634;2023-09-19T03:05:54;13.80;99.90
21481;DHT22;10902;48.158;8.634;2023-09-19T03:08:48;13.80;99.90
21481;DHT22;10902;48.158;8.634;2023-09-19T03:11:37;13.80;99.90
21481;DHT22;10902;48.158;8.634;2023-09-19T03:14:22;13.80;99.90
21481;DHT22;10902;48.158;8.634;2023-09-19T03:17:09;13.80;99.90
21481;DHT22;10902;48.158;8.634;2023-09-19T03:19:54;13.80;99.90
21481;DHT22;10902;48.158;8.634;2023-09-19T03:22:40;13.80;99.90
21481;DHT22;10902;48.158;8.634;2023-09-19T03:25:26;13.70;99.90
21481;DHT22;10902;48.158;8.634;2023-09-19T03:28:11;13.80;99.90
21481;DHT22;10902;48.158;8.634;2023-09-19T03:31:04;13.70;99.90
21481;DHT22;10902;48.158;8.634;2023-09-19T03:33:50;13.70;99.90
21481;DHT22;10902;48.158;8.634;2023-09-19T03:36:36;13.70;99.90
21481;DHT22;10902;48.158;8.634;2023-09-19T03:39:22;13.70;99.90
21481;DHT22;10902;48.158;8.634;2023-09-19T03:42:08;13.70;99.90
21481;DHT22;10902;48.158;8.634;2023-09-19T03:44:53;13.70;99.90
21481;DHT22;10902;48.158;8.634;2023-09-19T03:47:40;13.60;99.90
21481;DHT22;10902;48.158;8.634;2023-09-19T03:50:26;13.60;99.90
21481;DHT22;10902;48.158;8.634;2023-09-19T03:53:11;13.60;99.90
21481;DHT22;10902;48.158;8.634;2023-09-19T03:55:57;13.60;99.90
21481;DHT22;10902;48.158;8.634;2023-09-19T03:58:43;13.60;99.90
21481;DHT22;10902;48.158;8.634;2023-09-19T04:01:28;13.60;99.90
21481;DHT22;10902;48.158;8.634;2023-09-19T04:04:17;13.50;99.90
21481;DHT22;10902;48.158;8.634;2023-09-19T04:07:04;13.50;99.90
21481;DHT22;10902;48.158;8.634;2023-09-19T04:09:50;13.50;99.90
21481;DHT22;10902;48.158;8.634;2023-09-19T04:12:36;13.50;99.90
21481;DHT22;10902;48.158;8.634;2023-09-19T04:15:26;13.40;99.90
21481;DHT22;10902;48.158;8.634;2023-09-19T04:18:12;13.40;99.90
21481;DHT22;10902;48.158;8.634;2023-09-19T04:20:58;13.40;99.90
21481;DHT22;10902;48.158;8.634;2023-09-19T04:23:45;13.50;99.90
21481;DHT22;10902;48.158;8.634;2023-09-19T04:26:31;13.50;99.90
21481;DHT22;10902;48.158;8.634;2023-09-19T04:29:16;13.50;99.90
21481;DHT22;10902;48.158;8.634;2023-09-19T04:32:10;13.50;99.90
21481;DHT22;10902;48.158;8.634;2023-09-19T04:34:56;13.40;99.90
21481;DHT22;10902;48.158;8.634;2023-09-19T04:37:45;13.40;99.90
21481;DHT22;10902;48.158;8.634;2023-09-19T04:40:30;13.40;99.90
21481;DHT22;10902;48.158;8.634;2023-09-19T04:43:18;13.50;99.90
21481;DHT22;10902;48.158;8.634;2023-09-19T04:46:03;13.40;99.90
21481;DHT22;10902;48.158;8.634;2023-09-19T04:48:51;13.40;99.90
21481;DHT22;10902;48.158;8.634;2023-09-19T04:51:37;13.30;99.90
21481;DHT22;10902;48.158;8.634;2023-09-19T04:54:23;13.30;99.90
21481;DHT22;10902;48.158;8.634;2023-09-19T04:57:08;13.30;99.90
21481;DHT22;10902;48.158;8.634;2023-09-19T04:59:54;13.30;99.90
21481;DHT22;10902;48.158;8.634;2023-09-19T05:02:40;13.20;99.90
21481;DHT22;10902;48.158;8.634;2023-09-19T05:05:25;13.20;99.90
21481;DHT22;10902;48.158;8.634;2023-09-19T05:08:11;13.10;99.90
21481;DHT22;10902;48.158;8.634;2023-09-19T05:11:02;13.10;99.90
21481;DHT22;10902;48.158;8.634;2023-09-19T05:13:48;13.10;99.90
21481;DHT22;10902;48.158;8.634;2023-09-19T05:16:35;13.10;99.90
21481;DHT22;10902;48.158;8.634;2023-09-19T05:19:21;13.10;99.90
21481;DHT22;10902;48.158;8.634;2023-09-19T05:22:06;13.20;99.90
21481;DHT22;10902;48.158;8.634;2023-09-19T05:24:52;13.20;99.90
21481;DHT22;10902;48.158;8.634;2023-09-19T05:27:38;13.20;99.90
21481;DHT22;10902;48.158;8.634;2023-09-19T05:30:27;13.30;99.90
21481;DHT22;10902;48.158;8.634;2023-09-19T05:33:12;13.40;99.90
21481;DHT22;10902;48.158;8.634;2023-09-19T05:35:59;13.50;99.90
21481;DHT22;10902;48.158;8.634;2023-09-19T05:38:50;13.60;99.90
21481;DHT22;10902;48.158;8.634;2023-09-19T05:41:36;13.70;99.90
21481;DHT22;10902;48.158;8.634;2023-09-19T05:44:22;13.70;99.90
21481;DHT22;10902;48.158;8.634;2023-09-19T05:47:11;13.60;99.90
21481;DHT22;10902;48.158;8.634;2023-09-19T05:49:58;13.50;99.90
21481;DHT22;10902;48.158;8.634;2023-09-19T05:52:51;13.50;99.90
21481;DHT22;10902;48.158;8.634;2023-09-19T05:55:37;13.70;99.90
21481;DHT22;10902;48.158;8.634;2023-09-19T05:58:23;13.80;99.90
21481;DHT22;10902;48.158;8.634;2023-09-19T06:01:08;13.90;99.90
21481;DHT22;10902;48.158;8.634;2023-09-19T06:03:55;14.00;99.90
21481;DHT22;10902;48.158;8.634;2023-09-19T06:06:41;14.00;99.90
21481;DHT22;10902;48.158;8.634;2023-09-19T06:09:26;13.90;99.90
21481;DHT22;10902;48.158;8.634;2023-09-19T06:12:13;13.90;99.90
21481;DHT22;10902;48.158;8.634;2023-09-19T06:15:03;13.90;99.90
21481;DHT22;10902;48.158;8.634;2023-09-19T06:17:55;13.80;99.90
21481;DHT22;10902;48.158;8.634;2023-09-19T06:20:41;13.90;99.90
21481;DHT22;10902;48.158;8.634;2023-09-19T06:23:29;13.90;99.90
21481;DHT22;10902;48.158;8.634;2023-09-19T06:26:18;13.90;99.90
21481;DHT22;10902;48.158;8.634;2023-09-19T06:29:04;14.00;99.90
21481;DHT22;10902;48.158;8.634;2023-09-19T06:31:52;14.10;99.90
21481;DHT22;10902;48.158;8.634;2023-09-19T06:34:38;14.20;99.90
21481;DHT22;10902;48.158;8.634;2023-09-19T06:37:30;14.20;99.90
21481;DHT22;10902;48.158;8.634;2023-09-19T06:40:15;14.30;99.90
21481;DHT22;10902;48.158;8.634;2023-09-19T06:43:02;14.20;99.90
21481;DHT22;10902;48.158;8.634;2023-09-19T06:45:48;14.30;99.90
21481;DHT22;10902;48.158;8.634;2023-09-19T06:48:33;14.30;99.90
21481;DHT22;10902;48.158;8.634;2023-09-19T06:51:29;14.40;99.90
21481;DHT22;10902;48.158;8.634;2023-09-19T06:54:15;14.40;99.90
21481;DHT22;10902;48.158;8.634;2023-09-19T06:57:01;14.40;99.90
21481;DHT22;10902;48.158;8.634;2023-09-19T06:59:46;14.40;99.90
21481;DHT22;10902;48.158;8.634;2023-09-19T07:02:32;14.40;99.90
21481;DHT22;10902;48.158;8.634;2023-09-19T07:05:18;14.40;99.90
21481;DHT22;10902;48.158;8.634;2023-09-19T07:08:04;14.40;99.90
21481;DHT22;10902;48.158;8.634;2023-09-19T07:10:51;14.40;99.90
21481;DHT22;10902;48.158;8.634;2023-09-19T07:13:38;14.50;99.90
21481;DHT22;10902;48.158;8.634;2023-09-19T07:16:24;14.60;99.90
21481;DHT22;10902;48.158;8.634;2023-09-19T07:19:15;14.80;99.90
21481;DHT22;10902;48.158;8.634;2023-09-19T07:22:00;15.00;99.90
21481;DHT22;10902;48.158;8.634;2023-09-19T07:24:47;15.30;99.90
21481;DHT22;10902;48.158;8.634;2023-09-19T07:27:34;15.40;99.90
21481;DHT22;10902;48.158;8.634;2023-09-19T07:30:19;15.40;99.90
21481;DHT22;10902;48.158;8.634;2023-09-19T07:33:06;15.30;99.90
21481;DHT22;10902;48.158;8.634;2023-09-19T07:35:51;15.20;99.90
21481;DHT22;10902;48.158;8.634;2023-09-19T07:38:37;14.80;99.90
21481;DHT22;10902;48.158;8.634;2023-09-19T07:41:26;13.90;99.90
21481;DHT22;10902;48.158;8.634;2023-09-19T07:44:12;13.40;99.90
21481;DHT22;10902;48.158;8.634;2023-09-19T07:46:58;13.00;99.90
21481;DHT22;10902;48.158;8.634;2023-09-19T07:49:46;13.00;99.90
21481;DHT22;10902;48.158;8.634;2023-09-19T07:52:33;13.00;99.90
21481;DHT22;10902;48.158;8.634;2023-09-19T07:55:19;13.10;99.90
21481;DHT22;10902;48.158;8.634;2023-09-19T07:58:08;13.30;99.90
21481;DHT22;10902;48.158;8.634;2023-09-19T08:01:06;13.50;99.90
21481;DHT22;10902;48.158;8.634;2023-09-19T08:03:55;13.70;99.90
21481;DHT22;10902;48.158;8.634;2023-09-19T08:06:40;13.90;99.90
21481;DHT22;10902;48.158;8.634;2023-09-19T08:09:26;14.30;99.90
21481;DHT22;10902;48.158;8.634;2023-09-19T08:12:13;14.70;99.90
21481;DHT22;10902;48.158;8.634;2023-09-19T08:15:00;14.90;99.90
21481;DHT22;10902;48.158;8.634;2023-09-19T08:17:46;15.20;99.90
21481;DHT22;10902;48.158;8.634;2023-09-19T08:20:32;15.60;99.90
21481;DHT22;10902;48.158;8.634;2023-09-19T08:23:18;15.80;99.90
21481;DHT22;10902;48.158;8.634;2023-09-19T08:26:05;15.70;99.90
21481;DHT22;10902;48.158;8.634;2023-09-19T08:28:53;15.30;99.90
21481;DHT22;10902;48.158;8.634;2023-09-19T08:31:41;15.50;99.90
21481;DHT22;10902;48.158;8.634;2023-09-19T08:34:26;15.60;99.90
21481;DHT22;10902;48.158;8.634;2023-09-19T08:37:19;16.40;99.90
21481;DHT22;10902;48.158;8.634;2023-09-19T08:40:19;17.40;99.90
21481;DHT22;10902;48.158;8.634;2023-09-19T08:43:05;17.30;99.90
21481;DHT22;10902;48.158;8.634;2023-09-19T08:45:58;17.20;99.90
21481;DHT22;10902;48.158;8.634;2023-09-19T08:49:00;17.50;99.90
21481;DHT22;10902;48.158;8.634;2023-09-19T08:51:54;17.70;99.90
21481;DHT22;10902;48.158;8.634;2023-09-19T08:54:44;17.20;99.90
21481;DHT22;10902;48.158;8.634;2023-09-19T08:57:34;16.40;99.90
21481;DHT22;10902;48.158;8.634;2023-09-19T09:00:23;16.60;99.90
21481;DHT22;10902;48.158;8.634;2023-09-19T09:03:14;16.90;99.90
21481;DHT22;10902;48.158;8.634;2023-09-19T09:06:00;17.20;99.90
21481;DHT22;10902;48.158;8.634;2023-09-19T09:08:47;16.80;99.90
21481;DHT22;10902;48.158;8.634;2023-09-19T09:11:36;17.10;99.90
21481;DHT22;10902;48.158;8.634;2023-09-19T09:14:25;16.70;99.90
21481;DHT22;10902;48.158;8.634;2023-09-19T09:17:11;16.80;99.90
21481;DHT22;10902;48.158;8.634;2023-09-19T09:19:57;17.00;99.90
21481;DHT22;10902;48.158;8.634;2023-09-19T09:22:53;17.20;99.90
21481;DHT22;10902;48.158;8.634;2023-09-19T09:25:53;17.60;99.90
21481;DHT22;10902;48.158;8.634;2023-09-19T09:28:45;18.50;99.90
21481;DHT22;10902;48.158;8.634;2023-09-19T09:31:31;18.50;99.90
21481;DHT22;10902;48.158;8.634;2023-09-19T09:34:17;18.60;99.90
21481;DHT22;10902;48.158;8.634;2023-09-19T09:37:03;19.20;99.90
21481;DHT22;10902;48.158;8.634;2023-09-19T09:40:01;19.40;99.90
21481;DHT22;10902;48.158;8.634;2023-09-19T09:42:59;19.50;99.90
21481;DHT22;10902;48.158;8.634;2023-09-19T09:45:45;17.90;99.90
21481;DHT22;10902;48.158;8.634;2023-09-19T09:48:34;17.20;99.90
21481;DHT22;10902;48.158;8.634;2023-09-19T09:51:30;17.30;99.90
21481;DHT22;10902;48.158;8.634;2023-09-19T09:54:17;17.60;99.90
21481;DHT22;10902;48.158;8.634;2023-09-19T09:57:10;17.70;99.90
21481;DHT22;10902;48.158;8.634;2023-09-19T10:00:00;17.50;99.90
21481;DHT22;10902;48.158;8.634;2023-09-19T10:02:57;17.10;99.90
21481;DHT22;10902;48.158;8.634;2023-09-19T10:05:44;17.00;99.90
21481;DHT22;10902;48.158;8.634;2023-09-19T10:08:31;16.90;99.90
21481;DHT22;10902;48.158;8.634;2023-09-19T10:11:17;17.10;99.90
21481;DHT22;10902;48.158;8.634;2023-09-19T10:14:05;17.20;99.90
21481;DHT22;10902;48.158;8.634;2023-09-19T10:16:53;17.20;99.90
21481;DHT22;10902;48.158;8.634;2023-09-19T10:19:55;17.20;99.90
21481;DHT22;10902;48.158;8.634;2023-09-19T10:22:43;17.10;99.90
21481;DHT22;10902;48.158;8.634;2023-09-19T10:25:32;17.00;99.90
21481;DHT22;10902;48.158;8.634;2023-09-19T10:28:19;17.10;99.90
21481;DHT22;10902;48.158;8.634;2023-09-19T10:31:11;17.30;99.90
21481;DHT22;10902;48.158;8.634;2023-09-19T10:34:02;17.40;99.90
21481;DHT22;10902;48.158;8.634;2023-09-19T10:36:52;17.90;99.90
21481;DHT22;10902;48.158;8.634;2023-09-19T10:39:40;18.10;99.90
21481;DHT22;10902;48.158;8.634;2023-09-19T10:42:27;17.80;99.90
21481;DHT22;10902;48.158;8.634;2023-09-19T10:45:15;17.80;99.90
21481;DHT22;10902;48.158;8.634;2023-09-19T10:48:03;18.00;99.90
21481;DHT22;10902;48.158;8.634;2023-09-19T10:50:57;17.90;99.90
21481;DHT22;10902;48.158;8.634;2023-09-19T10:53:55;18.10;99.90
21481;DHT22;10902;48.158;8.634;2023-09-19T10:56:47;18.60;99.90
21481;DHT22;10902;48.158;8.634;2023-09-19T10:59:34;19.90;99.90
21481;DHT22;10902;48.158;8.634;2023-09-19T11:02:20;21.00;99.90
21481;DHT22;10902;48.158;8.634;2023-09-19T11:05:13;21.50;99.90
21481;DHT22;10902;48.158;8.634;2023-09-19T11:07:59;21.20;99.90
21481;DHT22;10902;48.158;8.634;2023-09-19T11:10:50;21.40;99.90
21481;DHT22;10902;48.158;8.634;2023-09-19T11:13:36;21.20;99.90
21481;DHT22;10902;48.158;8.634;2023-09-19T11:16:23;20.80;99.90
21481;DHT22;10902;48.158;8.634;2023-09-19T11:19:09;20.70;99.90
21481;DHT22;10902;48.158;8.634;2023-09-19T11:21:56;20.00;99.90
21481;DHT22;10902;48.158;8.634;2023-09-19T11:24:42;20.00;99.90
21481;DHT22;10902;48.158;8.634;2023-09-19T11:27:27;20.70;99.90
21481;DHT22;10902;48.158;8.634;2023-09-19T11:30:27;20.00;99.90
21481;DHT22;10902;48.158;8.634;2023-09-19T11:33:29;20.40;99.90
21481;DHT22;10902;48.158;8.634;2023-09-19T11:36:35;20.00;99.90
21481;DHT22;10902;48.158;8.634;2023-09-19T11:39:25;20.00;99.90
21481;DHT22;10902;48.158;8.634;2023-09-19T11:42:47;20.40;99.90
21481;DHT22;10902;48.158;8.634;2023-09-19T11:48:47;20.70;99.90
21481;DHT22;10902;48.158;8.634;2023-09-19T11:51:40;20.60;99.90
21481;DHT22;10902;48.158;8.634;2023-09-19T11:54:29;20.40;99.90
21481;DHT22;10902;48.158;8.634;2023-09-19T11:57:20;21.00;99.90
21481;DHT22;10902;48.158;8.634;2023-09-19T12:00:07;21.80;99.90
21481;DHT22;10902;48.158;8.634;2023-09-19T12:02:55;22.00;99.90
21481;DHT22;10902;48.158;8.634;2023-09-19T12:05:47;21.80;99.90
21481;DHT22;10902;48.158;8.634;2023-09-19T12:08:34;22.00;99.90
21481;DHT22;10902;48.158;8.634;2023-09-19T12:11:21;22.00;99.90
21481;DHT22;10902;48.158;8.634;2023-09-19T12:14:08;20.50;99.90
21481;DHT22;10902;48.158;8.634;2023-09-19T12:16:55;21.90;99.90
21481;DHT22;10902;48.158;8.634;2023-09-19T12:19:53;21.80;99.90
21481;DHT22;10902;48.158;8.634;2023-09-19T12:22:43;22.00;99.90
21481;DHT22;10902;48.158;8.634;2023-09-19T12:25:46;21.20;99.90
21481;DHT22;10902;48.158;8.634;2023-09-19T12:28:41;21.70;99.90
21481;DHT22;10902;48.158;8.634;2023-09-19T12:31:27;22.00;99.90
21481;DHT22;10902;48.158;8.634;2023-09-19T12:34:31;22.00;99.90
21481;DHT22;10902;48.158;8.634;2023-09-19T12:37:20;21.40;99.90
21481;DHT22;10902;48.158;8.634;2023-09-19T12:40:09;21.10;99.90
21481;DHT22;10902;48.158;8.634;2023-09-19T12:43:07;21.60;99.90
21481;DHT22;10902;48.158;8.634;2023-09-19T12:45:54;21.70;99.90
21481;DHT22;10902;48.158;8.634;2023-09-19T12:48:40;21.60;99.90
21481;DHT22;10902;48.158;8.634;2023-09-19T12:51:40;21.70;99.90
21481;DHT22;10902;48.158;8.634;2023-09-19T12:54:40;22.40;99.90
21481;DHT22;10902;48.158;8.634;2023-09-19T12:57:25;23.00;99.90
21481;DHT22;10902;48.158;8.634;2023-09-19T13:00:11;22.80;99.90
21481;DHT22;10902;48.158;8.634;2023-09-19T13:03:26;23.40;99.90
21481;DHT22;10902;48.158;8.634;2023-09-19T13:06:12;22.90;99.90
21481;DHT22;10902;48.158;8.634;2023-09-19T13:09:08;22.90;99.90
21481;DHT22;10902;48.158;8.634;2023-09-19T13:12:01;22.20;99.90
21481;DHT22;10902;48.158;8.634;2023-09-19T13:15:07;21.80;99.90
21481;DHT22;10902;48.158;8.634;2023-09-19T13:17:56;21.50;99.90
21481;DHT22;10902;48.158;8.634;2023-09-19T13:21:14;22.00;99.90
21481;DHT22;10902;48.158;8.634;2023-09-19T13:24:25;22.90;99.90
21481;DHT22;10902;48.158;8.634;2023-09-19T13:27:24;22.70;99.90
21481;DHT22;10902;48.158;8.634;2023-09-19T13:30:11;22.90;99.90
21481;DHT22;10902;48.158;8.634;2023-09-19T13:33:10;22.80;99.90
21481;DHT22;10902;48.158;8.634;2023-09-19T13:35:56;22.80;99.90
21481;DHT22;10902;48.158;8.634;2023-09-19T13:38:42;22.10;99.90
21481;DHT22;10902;48.158;8.634;2023-09-19T13:41:34;22.20;99.90
21481;DHT22;10902;48.158;8.634;2023-09-19T13:44:23;22.10;99.90
21481;DHT22;10902;48.158;8.634;2023-09-19T13:47:09;22.00;99.90
21481;DHT22;10902;48.158;8.634;2023-09-19T13:49:56;22.80;99.90
21481;DHT22;10902;48.158;8.634;2023-09-19T13:52:42;23.50;99.90
21481;DHT22;10902;48.158;8.634;2023-09-19T13:55:31;23.30;99.90
21481;DHT22;10902;48.158;8.634;2023-09-19T13:58:17;22.20;99.90
21481;DHT22;10902;48.158;8.634;2023-09-19T14:01:03;22.20;99.90
21481;DHT22;10902;48.158;8.634;2023-09-19T14:03:49;23.00;99.90
21481;DHT22;10902;48.158;8.634;2023-09-19T14:06:36;22.60;99.90
21481;DHT22;10902;48.158;8.634;2023-09-19T14:09:23;22.60;99.90
21481;DHT22;10902;48.158;8.634;2023-09-19T14:12:10;22.60;99.90
21481;DHT22;10902;48.158;8.634;2023-09-19T14:14:55;22.00;99.90
21481;DHT22;10902;48.158;8.634;2023-09-19T14:17:41;22.30;99.90
21481;DHT22;10902;48.158;8.634;2023-09-19T14:20:33;21.60;99.90
21481;DHT22;10902;48.158;8.634;2023-09-19T14:23:28;22.60;99.90
21481;DHT22;10902;48.158;8.634;2023-09-19T14:26:14;23.00;99.90
21481;DHT22;10902;48.158;8.634;2023-09-19T14:29:13;23.20;99.90
21481;DHT22;10902;48.158;8.634;2023-09-19T14:32:00;23.20;99.90
21481;DHT22;10902;48.158;8.634;2023-09-19T14:34:54;22.20;99.90
21481;DHT22;10902;48.158;8.634;2023-09-19T14:37:42;23.00;99.90
21481;DHT22;10902;48.158;8.634;2023-09-19T14:40:28;22.80;99.90
21481;DHT22;10902;48.158;8.634;2023-09-19T14:43:16;22.40;99.90
21481;DHT22;10902;48.158;8.634;2023-09-19T14:46:04;22.90;99.90
21481;DHT22;10902;48.158;8.634;2023-09-19T14:48:53;22.30;99.90
21481;DHT22;10902;48.158;8.634;2023-09-19T14:51:38;23.40;99.90
21481;DHT22;10902;48.158;8.634;2023-09-19T14:54:30;23.70;99.90
21481;DHT22;10902;48.158;8.634;2023-09-19T14:57:16;23.50;99.90
21481;DHT22;10902;48.158;8.634;2023-09-19T15:00:02;23.50;99.90
21481;DHT22;10902;48.158;8.634;2023-09-19T15:02:50;23.70;99.90
21481;DHT22;10902;48.158;8.634;2023-09-19T15:06:04;23.80;99.90
21481;DHT22;10902;48.158;8.634;2023-09-19T15:08:54;24.00;99.90
21481;DHT22;10902;48.158;8.634;2023-09-19T15:11:40;23.60;99.90
21481;DHT22;10902;48.158;8.634;2023-09-19T15:14:26;24.10;99.90
21481;DHT22;10902;48.158;8.634;2023-09-19T15:17:11;24.00;99.90
21481;DHT22;10902;48.158;8.634;2023-09-19T15:19:57;23.60;99.90
21481;DHT22;10902;48.158;8.634;2023-09-19T15:22:43;23.70;99.90
21481;DHT22;10902;48.158;8.634;2023-09-19T15:25:29;24.20;99.90
21481;DHT22;10902;48.158;8.634;2023-09-19T15:28:15;23.50;99.90
21481;DHT22;10902;48.158;8.634;2023-09-19T15:31:05;23.20;99.90
21481;DHT22;10902;48.158;8.634;2023-09-19T15:33:51;22.60;99.90
21481;DHT22;10902;48.158;8.634;2023-09-19T15:36:37;23.10;99.90
21481;DHT22;10902;48.158;8.634;2023-09-19T15:39:30;22.60;99.90
21481;DHT22;10902;48.158;8.634;2023-09-19T15:42:19;21.80;99.90
21481;DHT22;10902;48.158;8.634;2023-09-19T15:45:06;22.10;99.90
21481;DHT22;10902;48.158;8.634;2023-09-19T15:47:52;22.20;99.90
21481;DHT22;10902;48.158;8.634;2023-09-19T15:50:38;22.30;99.90
21481;DHT22;10902;48.158;8.634;2023-09-19T15:53:24;21.90;99.90
21481;DHT22;10902;48.158;8.634;2023-09-19T15:56:10;21.60;99.90
21481;DHT22;10902;48.158;8.634;2023-09-19T15:58:59;22.40;99.90
21481;DHT22;10902;48.158;8.634;2023-09-19T16:01:45;23.50;99.90
21481;DHT22;10902;48.158;8.634;2023-09-19T16:04:31;23.90;99.90
21481;DHT22;10902;48.158;8.634;2023-09-19T16:07:17;23.90;99.90
21481;DHT22;10902;48.158;8.634;2023-09-19T16:10:04;23.50;99.90
21481;DHT22;10902;48.158;8.634;2023-09-19T16:12:50;23.80;99.90
21481;DHT22;10902;48.158;8.634;2023-09-19T16:15:41;23.30;99.90
21481;DHT22;10902;48.158;8.634;2023-09-19T16:18:30;22.30;99.90
21481;DHT22;10902;48.158;8.634;2023-09-19T16:21:19;21.70;99.90
21481;DHT22;10902;48.158;8.634;2023-09-19T16:24:05;21.70;99.90
21481;DHT22;10902;48.158;8.634;2023-09-19T16:26:51;21.10;99.90
21481;DHT22;10902;48.158;8.634;2023-09-19T16:29:38;21.10;99.90
21481;DHT22;10902;48.158;8.634;2023-09-19T16:32:23;21.50;99.90
21481;DHT22;10902;48.158;8.634;2023-09-19T16:35:09;21.50;99.90
21481;DHT22;10902;48.158;8.634;2023-09-19T16:38:13;21.30;99.90
21481;DHT22;10902;48.158;8.634;2023-09-19T16:40:59;21.60;99.90
21481;DHT22;10902;48.158;8.634;2023-09-19T16:43:45;21.30;99.90
21481;DHT22;10902;48.158;8.634;2023-09-19T16:46:31;21.20;99.90
21481;DHT22;10902;48.158;8.634;2023-09-19T16:49:16;21.00;99.90
21481;DHT22;10902;48.158;8.634;2023-09-19T16:52:02;21.20;99.90
21481;DHT22;10902;48.158;8.634;2023-09-19T16:54:49;21.30;99.90
21481;DHT22;10902;48.158;8.634;2023-09-19T16:57:38;20.60;99.90
21481;DHT22;10902;48.158;8.634;2023-09-19T17:00:24;20.60;99.90
21481;DHT22;10902;48.158;8.634;2023-09-19T17:03:11;20.40;99.90
21481;DHT22;10902;48.158;8.634;2023-09-19T17:05:58;20.50;99.90
21481;DHT22;10902;48.158;8.634;2023-09-19T17:08:44;20.20;99.90
21481;DHT22;10902;48.158;8.634;2023-09-19T17:11:30;20.20;99.90
21481;DHT22;10902;48.158;8.634;2023-09-19T17:14:17;19.80;99.90
21481;DHT22;10902;48.158;8.634;2023-09-19T17:17:03;19.80;99.90
21481;DHT22;10902;48.158;8.634;2023-09-19T17:19:49;19.60;99.90
21481;DHT22;10902;48.158;8.634;2023-09-19T17:22:35;19.20;99.90
21481;DHT22;10902;48.158;8.634;2023-09-19T17:25:21;18.60;99.90
21481;DHT22;10902;48.158;8.634;2023-09-19T17:28:13;18.10;99.90
21481;DHT22;10902;48.158;8.634;2023-09-19T17:31:00;17.80;99.90
21481;DHT22;10902;48.158;8.634;2023-09-19T17:33:47;17.60;99.90
21481;DHT22;10902;48.158;8.634;2023-09-19T17:36:33;17.50;99.90
21481;DHT22;10902;48.158;8.634;2023-09-19T17:39:20;17.40;99.90
21481;DHT22;10902;48.158;8.634;2023-09-19T17:42:06;17.30;99.90
21481;DHT22;10902;48.158;8.634;2023-09-19T17:44:53;17.10;99.90
21481;DHT22;10902;48.158;8.634;2023-09-19T17:47:42;17.00;99.90
21481;DHT22;10902;48.158;8.634;2023-09-19T17:50:28;16.80;99.90
21481;DHT22;10902;48.158;8.634;2023-09-19T17:53:14;16.80;99.90
21481;DHT22;10902;48.158;8.634;2023-09-19T17:56:01;16.90;99.90
21481;DHT22;10902;48.158;8.634;2023-09-19T17:58:48;16.90;99.90